DTTA/TUN METAR and TAF weather

Enter ICAO airport designator
Station Type Date Time Source
DTTA METAR 2022/01/25 10:30 UTC NOAA

DTTA 251030Z VRB01KT 8000 SCT030 SCT046 12/08 Q1031


Station Type Date Time Source
DTTA Decoded METAR 2022/01/25 10:30 UTC NOAA

Tunis-Carthage, Tunisia (DTTA) 36-50N 010-14E 4M
Jan 25, 2022 - 05:30 AM EST / 2022.01.25 1030 UTC
Wind: Variable at 1 MPH (1 KT):0
Visibility: 4 mile(s):0
Sky conditions: partly cloudy
Temperature: 53 F (12 C)
Dew Point: 46 F (8 C)
Relative Humidity: 76%
Pressure (altimeter): 30.45 in. Hg (1031 hPa)
ob: DTTA 251030Z VRB01KT 8000 SCT030 SCT046 12/08 Q1031
cycle: 10

Station Type Date Time Source
DTTA TAF 2022/01/26 12:06 UTC NOAA

TAF DTTA 261100Z 2612/2712 20010KT 9999 FEW030
BECMG 2613/2615 VRB02KT

Example: see airport list